sensor_id;sensor_type;location;lat;lon;timestamp;P1;durP1;ratioP1;P2;durP2;ratioP2
4468;SDS011;2247;42.666;23.292;2023-03-25T00:00:20;19.50;;;13.27;;
4468;SDS011;2247;42.666;23.292;2023-03-25T00:02:49;22.77;;;14.00;;
4468;SDS011;2247;42.666;23.292;2023-03-25T00:05:18;22.43;;;13.43;;
4468;SDS011;2247;42.666;23.292;2023-03-25T00:07:49;20.20;;;13.23;;
4468;SDS011;2247;42.666;23.292;2023-03-25T00:10:17;26.50;;;13.73;;
4468;SDS011;2247;42.666;23.292;2023-03-25T00:12:45;22.20;;;12.30;;
4468;SDS011;2247;42.666;23.292;2023-03-25T00:15:11;19.43;;;12.83;;
4468;SDS011;2247;42.666;23.292;2023-03-25T00:17:40;24.40;;;12.80;;
4468;SDS011;2247;42.666;23.292;2023-03-25T00:20:08;17.37;;;12.40;;
4468;SDS011;2247;42.666;23.292;2023-03-25T00:22:36;22.00;;;12.60;;
4468;SDS011;2247;42.666;23.292;2023-03-25T00:25:07;24.00;;;12.57;;
4468;SDS011;2247;42.666;23.292;2023-03-25T00:27:36;14.63;;;11.37;;
4468;SDS011;2247;42.666;23.292;2023-03-25T00:30:03;19.13;;;11.40;;
4468;SDS011;2247;42.666;23.292;2023-03-25T00:32:30;23.43;;;11.97;;
4468;SDS011;2247;42.666;23.292;2023-03-25T00:34:57;17.47;;;12.00;;
4468;SDS011;2247;42.666;23.292;2023-03-25T00:37:24;23.33;;;11.27;;
4468;SDS011;2247;42.666;23.292;2023-03-25T00:39:51;16.50;;;12.03;;
4468;SDS011;2247;42.666;23.292;2023-03-25T00:42:19;17.90;;;11.47;;
4468;SDS011;2247;42.666;23.292;2023-03-25T00:44:50;19.43;;;11.93;;
4468;SDS011;2247;42.666;23.292;2023-03-25T00:47:17;16.03;;;11.37;;
4468;SDS011;2247;42.666;23.292;2023-03-25T00:49:45;22.70;;;12.10;;
4468;SDS011;2247;42.666;23.292;2023-03-25T00:52:12;18.13;;;11.77;;
4468;SDS011;2247;42.666;23.292;2023-03-25T00:54:40;15.93;;;11.50;;
4468;SDS011;2247;42.666;23.292;2023-03-25T00:57:07;27.30;;;11.30;;
4468;SDS011;2247;42.666;23.292;2023-03-25T00:59:35;20.60;;;12.30;;
4468;SDS011;2247;42.666;23.292;2023-03-25T01:02:02;21.20;;;11.83;;
4468;SDS011;2247;42.666;23.292;2023-03-25T01:04:31;17.20;;;11.80;;
4468;SDS011;2247;42.666;23.292;2023-03-25T01:06:58;15.60;;;11.10;;
4468;SDS011;2247;42.666;23.292;2023-03-25T01:09:25;20.33;;;11.80;;
4468;SDS011;2247;42.666;23.292;2023-03-25T01:11:52;19.53;;;11.30;;
4468;SDS011;2247;42.666;23.292;2023-03-25T01:14:19;17.07;;;11.80;;
4468;SDS011;2247;42.666;23.292;2023-03-25T01:16:53;14.83;;;11.00;;
4468;SDS011;2247;42.666;23.292;2023-03-25T01:19:20;16.87;;;11.60;;
4468;SDS011;2247;42.666;23.292;2023-03-25T01:21:47;15.13;;;11.20;;
4468;SDS011;2247;42.666;23.292;2023-03-25T01:24:14;22.73;;;12.20;;
4468;SDS011;2247;42.666;23.292;2023-03-25T01:26:41;17.73;;;11.73;;
4468;SDS011;2247;42.666;23.292;2023-03-25T01:29:10;20.50;;;11.50;;
4468;SDS011;2247;42.666;23.292;2023-03-25T01:31:38;20.27;;;12.40;;
4468;SDS011;2247;42.666;23.292;2023-03-25T01:34:06;20.50;;;12.13;;
4468;SDS011;2247;42.666;23.292;2023-03-25T01:36:33;25.07;;;13.80;;
4468;SDS011;2247;42.666;23.292;2023-03-25T01:39:02;19.20;;;12.37;;
4468;SDS011;2247;42.666;23.292;2023-03-25T01:41:29;24.20;;;11.57;;
4468;SDS011;2247;42.666;23.292;2023-03-25T01:44:02;22.17;;;12.17;;
4468;SDS011;2247;42.666;23.292;2023-03-25T01:46:31;16.40;;;11.50;;
4468;SDS011;2247;42.666;23.292;2023-03-25T01:48:57;19.43;;;11.43;;
4468;SDS011;2247;42.666;23.292;2023-03-25T01:51:29;20.80;;;11.80;;
4468;SDS011;2247;42.666;23.292;2023-03-25T01:53:59;18.67;;;11.27;;
4468;SDS011;2247;42.666;23.292;2023-03-25T01:56:27;15.23;;;10.83;;
4468;SDS011;2247;42.666;23.292;2023-03-25T01:58:59;17.13;;;10.50;;
4468;SDS011;2247;42.666;23.292;2023-03-25T02:01:27;17.23;;;10.80;;
4468;SDS011;2247;42.666;23.292;2023-03-25T02:03:55;15.60;;;10.90;;
4468;SDS011;2247;42.666;23.292;2023-03-25T02:06:27;14.00;;;10.20;;
4468;SDS011;2247;42.666;23.292;2023-03-25T02:09:01;19.00;;;10.80;;
4468;SDS011;2247;42.666;23.292;2023-03-25T02:11:30;19.30;;;11.37;;
4468;SDS011;2247;42.666;23.292;2023-03-25T02:13:58;20.23;;;11.27;;
4468;SDS011;2247;42.666;23.292;2023-03-25T02:16:32;17.90;;;11.10;;
4468;SDS011;2247;42.666;23.292;2023-03-25T02:19:15;20.13;;;10.90;;
4468;SDS011;2247;42.666;23.292;2023-03-25T02:25:24;18.53;;;10.47;;
4468;SDS011;2247;42.666;23.292;2023-03-25T02:28:08;17.00;;;10.33;;
4468;SDS011;2247;42.666;23.292;2023-03-25T02:30:52;14.33;;;10.50;;
4468;SDS011;2247;42.666;23.292;2023-03-25T02:33:41;14.27;;;10.70;;
4468;SDS011;2247;42.666;23.292;2023-03-25T02:36:36;14.87;;;10.10;;
4468;SDS011;2247;42.666;23.292;2023-03-25T02:39:31;15.60;;;10.37;;
4468;SDS011;2247;42.666;23.292;2023-03-25T02:42:03;19.50;;;10.33;;
4468;SDS011;2247;42.666;23.292;2023-03-25T02:44:35;17.10;;;11.23;;
4468;SDS011;2247;42.666;23.292;2023-03-25T02:47:06;15.10;;;10.20;;
4468;SDS011;2247;42.666;23.292;2023-03-25T02:49:39;20.93;;;10.60;;
4468;SDS011;2247;42.666;23.292;2023-03-25T02:52:10;19.53;;;10.33;;
4468;SDS011;2247;42.666;23.292;2023-03-25T02:54:42;18.50;;;10.10;;
4468;SDS011;2247;42.666;23.292;2023-03-25T02:57:11;19.70;;;10.47;;
4468;SDS011;2247;42.666;23.292;2023-03-25T02:59:43;19.73;;;10.40;;
4468;SDS011;2247;42.666;23.292;2023-03-25T03:02:13;13.70;;;10.07;;
4468;SDS011;2247;42.666;23.292;2023-03-25T03:04:44;19.20;;;10.23;;
4468;SDS011;2247;42.666;23.292;2023-03-25T03:07:14;15.40;;;10.10;;
4468;SDS011;2247;42.666;23.292;2023-03-25T03:09:50;12.63;;;9.60;;
4468;SDS011;2247;42.666;23.292;2023-03-25T03:12:27;12.97;;;9.47;;
4468;SDS011;2247;42.666;23.292;2023-03-25T03:15:11;15.50;;;10.10;;
4468;SDS011;2247;42.666;23.292;2023-03-25T03:17:50;14.50;;;9.30;;
4468;SDS011;2247;42.666;23.292;2023-03-25T03:20:31;14.83;;;9.70;;
4468;SDS011;2247;42.666;23.292;2023-03-25T03:23:06;14.57;;;9.40;;
4468;SDS011;2247;42.666;23.292;2023-03-25T03:25:42;12.83;;;9.60;;
4468;SDS011;2247;42.666;23.292;2023-03-25T03:28:14;16.80;;;9.93;;
4468;SDS011;2247;42.666;23.292;2023-03-25T03:30:49;13.67;;;9.90;;
4468;SDS011;2247;42.666;23.292;2023-03-25T03:33:23;13.83;;;9.70;;
4468;SDS011;2247;42.666;23.292;2023-03-25T03:35:56;14.63;;;10.10;;
4468;SDS011;2247;42.666;23.292;2023-03-25T03:38:26;13.27;;;9.93;;
4468;SDS011;2247;42.666;23.292;2023-03-25T03:40:59;17.00;;;9.30;;
4468;SDS011;2247;42.666;23.292;2023-03-25T03:43:30;17.47;;;9.30;;
4468;SDS011;2247;42.666;23.292;2023-03-25T03:46:02;17.43;;;9.80;;
4468;SDS011;2247;42.666;23.292;2023-03-25T03:48:35;13.40;;;9.63;;
4468;SDS011;2247;42.666;23.292;2023-03-25T03:51:06;15.63;;;9.30;;
4468;SDS011;2247;42.666;23.292;2023-03-25T03:53:37;15.63;;;9.90;;
4468;SDS011;2247;42.666;23.292;2023-03-25T03:56:09;13.97;;;9.27;;
4468;SDS011;2247;42.666;23.292;2023-03-25T03:58:39;17.97;;;10.20;;
4468;SDS011;2247;42.666;23.292;2023-03-25T04:01:07;13.70;;;9.47;;
4468;SDS011;2247;42.666;23.292;2023-03-25T04:03:39;17.73;;;9.70;;
4468;SDS011;2247;42.666;23.292;2023-03-25T04:06:11;16.57;;;10.77;;
4468;SDS011;2247;42.666;23.292;2023-03-25T04:08:46;11.80;;;8.93;;
4468;SDS011;2247;42.666;23.292;2023-03-25T04:11:25;16.67;;;9.47;;
4468;SDS011;2247;42.666;23.292;2023-03-25T04:13:57;13.73;;;9.90;;
4468;SDS011;2247;42.666;23.292;2023-03-25T04:16:26;13.10;;;10.10;;
4468;SDS011;2247;42.666;23.292;2023-03-25T04:18:53;20.90;;;12.90;;
4468;SDS011;2247;42.666;23.292;2023-03-25T04:21:22;27.23;;;11.07;;
4468;SDS011;2247;42.666;23.292;2023-03-25T04:23:49;16.40;;;9.83;;
4468;SDS011;2247;42.666;23.292;2023-03-25T04:26:16;17.37;;;9.60;;
4468;SDS011;2247;42.666;23.292;2023-03-25T04:28:45;20.93;;;11.70;;
4468;SDS011;2247;42.666;23.292;2023-03-25T04:31:12;16.20;;;10.10;;
4468;SDS011;2247;42.666;23.292;2023-03-25T04:33:42;15.00;;;10.20;;
4468;SDS011;2247;42.666;23.292;2023-03-25T04:36:12;16.03;;;9.90;;
4468;SDS011;2247;42.666;23.292;2023-03-25T04:38:40;19.50;;;10.00;;
4468;SDS011;2247;42.666;23.292;2023-03-25T04:41:10;15.10;;;9.80;;
4468;SDS011;2247;42.666;23.292;2023-03-25T04:43:39;15.77;;;10.00;;
4468;SDS011;2247;42.666;23.292;2023-03-25T04:46:10;18.63;;;10.23;;
4468;SDS011;2247;42.666;23.292;2023-03-25T04:48:40;15.10;;;9.60;;
4468;SDS011;2247;42.666;23.292;2023-03-25T04:51:09;17.83;;;10.87;;
4468;SDS011;2247;42.666;23.292;2023-03-25T04:53:37;14.63;;;10.60;;
4468;SDS011;2247;42.666;23.292;2023-03-25T04:56:04;19.00;;;10.60;;
4468;SDS011;2247;42.666;23.292;2023-03-25T04:58:37;15.30;;;9.80;;
4468;SDS011;2247;42.666;23.292;2023-03-25T05:01:05;13.60;;;9.50;;
4468;SDS011;2247;42.666;23.292;2023-03-25T05:03:49;20.00;;;10.93;;
4468;SDS011;2247;42.666;23.292;2023-03-25T05:06:29;15.53;;;9.63;;
4468;SDS011;2247;42.666;23.292;2023-03-25T05:08:58;15.47;;;10.13;;
4468;SDS011;2247;42.666;23.292;2023-03-25T05:11:29;13.60;;;10.10;;
4468;SDS011;2247;42.666;23.292;2023-03-25T05:13:58;13.80;;;10.43;;
4468;SDS011;2247;42.666;23.292;2023-03-25T05:16:26;15.23;;;9.83;;
4468;SDS011;2247;42.666;23.292;2023-03-25T05:18:56;18.50;;;10.67;;
4468;SDS011;2247;42.666;23.292;2023-03-25T05:21:23;13.97;;;9.30;;
4468;SDS011;2247;42.666;23.292;2023-03-25T05:26:26;13.83;;;10.97;;
4468;SDS011;2247;42.666;23.292;2023-03-25T05:29:05;15.50;;;9.77;;
4468;SDS011;2247;42.666;23.292;2023-03-25T05:31:40;14.27;;;10.23;;
4468;SDS011;2247;42.666;23.292;2023-03-25T05:34:10;16.30;;;10.13;;
4468;SDS011;2247;42.666;23.292;2023-03-25T05:36:38;14.07;;;10.63;;
4468;SDS011;2247;42.666;23.292;2023-03-25T05:39:09;13.60;;;10.87;;
4468;SDS011;2247;42.666;23.292;2023-03-25T05:41:36;14.40;;;10.47;;
4468;SDS011;2247;42.666;23.292;2023-03-25T05:44:10;14.47;;;10.90;;
4468;SDS011;2247;42.666;23.292;2023-03-25T05:46:44;19.20;;;10.33;;
4468;SDS011;2247;42.666;23.292;2023-03-25T05:49:17;15.93;;;10.13;;
4468;SDS011;2247;42.666;23.292;2023-03-25T05:51:49;15.60;;;10.20;;
4468;SDS011;2247;42.666;23.292;2023-03-25T05:54:19;14.40;;;10.70;;
4468;SDS011;2247;42.666;23.292;2023-03-25T05:56:48;17.30;;;11.83;;
4468;SDS011;2247;42.666;23.292;2023-03-25T05:59:15;16.23;;;9.80;;
4468;SDS011;2247;42.666;23.292;2023-03-25T06:01:42;15.60;;;9.80;;
4468;SDS011;2247;42.666;23.292;2023-03-25T06:04:09;14.43;;;9.33;;
4468;SDS011;2247;42.666;23.292;2023-03-25T06:06:39;13.77;;;9.80;;
4468;SDS011;2247;42.666;23.292;2023-03-25T06:09:06;13.13;;;9.70;;
4468;SDS011;2247;42.666;23.292;2023-03-25T06:14:09;14.53;;;10.10;;
4468;SDS011;2247;42.666;23.292;2023-03-25T06:21:48;15.83;;;9.57;;
4468;SDS011;2247;42.666;23.292;2023-03-25T06:24:15;16.27;;;9.33;;
4468;SDS011;2247;42.666;23.292;2023-03-25T06:26:42;11.63;;;8.20;;
4468;SDS011;2247;42.666;23.292;2023-03-25T06:29:09;16.53;;;10.20;;
4468;SDS011;2247;42.666;23.292;2023-03-25T06:31:36;12.00;;;8.23;;
4468;SDS011;2247;42.666;23.292;2023-03-25T06:39:14;11.23;;;8.43;;
4468;SDS011;2247;42.666;23.292;2023-03-25T06:49:28;14.03;;;10.20;;
4468;SDS011;2247;42.666;23.292;2023-03-25T06:51:55;18.45;;;9.00;;
4468;SDS011;2247;42.666;23.292;2023-03-25T07:07:20;17.53;;;12.67;;
4468;SDS011;2247;42.666;23.292;2023-03-25T07:12:22;17.50;;;11.60;;
4468;SDS011;2247;42.666;23.292;2023-03-25T07:20:00;18.80;;;11.37;;
4468;SDS011;2247;42.666;23.292;2023-03-25T07:25:04;22.53;;;13.17;;
4468;SDS011;2247;42.666;23.292;2023-03-25T07:30:07;25.73;;;13.90;;
4468;SDS011;2247;42.666;23.292;2023-03-25T07:32:35;21.33;;;12.80;;
4468;SDS011;2247;42.666;23.292;2023-03-25T07:35:02;19.67;;;11.57;;
4468;SDS011;2247;42.666;23.292;2023-03-25T07:40:07;30.40;;;13.43;;
4468;SDS011;2247;42.666;23.292;2023-03-25T07:45:13;24.17;;;12.70;;
4468;SDS011;2247;42.666;23.292;2023-03-25T07:47:41;25.93;;;13.00;;
4468;SDS011;2247;42.666;23.292;2023-03-25T07:50:14;21.07;;;12.70;;
4468;SDS011;2247;42.666;23.292;2023-03-25T07:52:42;19.90;;;13.03;;
4468;SDS011;2247;42.666;23.292;2023-03-25T07:55:26;18.20;;;13.60;;
4468;SDS011;2247;42.666;23.292;2023-03-25T08:08:19;27.60;;;16.40;;
4468;SDS011;2247;42.666;23.292;2023-03-25T08:23:43;125.27;;;63.60;;
4468;SDS011;2247;42.666;23.292;2023-03-25T08:36:32;31.00;;;17.03;;
4468;SDS011;2247;42.666;23.292;2023-03-25T10:43:09;7.80;;;4.90;;
4468;SDS011;2247;42.666;23.292;2023-03-25T11:06:24;7.73;;;5.20;;
4468;SDS011;2247;42.666;23.292;2023-03-25T11:09:01;7.10;;;5.40;;
4468;SDS011;2247;42.666;23.292;2023-03-25T11:14:43;10.97;;;5.00;;
4468;SDS011;2247;42.666;23.292;2023-03-25T11:17:26;8.30;;;5.47;;
4468;SDS011;2247;42.666;23.292;2023-03-25T14:09:02;5.50;;;4.40;;
4468;SDS011;2247;42.666;23.292;2023-03-25T14:11:49;5.80;;;4.23;;
4468;SDS011;2247;42.666;23.292;2023-03-25T14:17:03;6.33;;;4.03;;
4468;SDS011;2247;42.666;23.292;2023-03-25T14:19:32;5.37;;;4.13;;
4468;SDS011;2247;42.666;23.292;2023-03-25T14:27:13;10.13;;;4.50;;
4468;SDS011;2247;42.666;23.292;2023-03-25T14:29:44;4.80;;;4.40;;
4468;SDS011;2247;42.666;23.292;2023-03-25T14:32:30;8.10;;;5.13;;
4468;SDS011;2247;42.666;23.292;2023-03-25T14:46:01;5.23;;;3.70;;
4468;SDS011;2247;42.666;23.292;2023-03-25T14:48:32;6.23;;;4.10;;
4468;SDS011;2247;42.666;23.292;2023-03-25T14:58:49;5.40;;;4.83;;
4468;SDS011;2247;42.666;23.292;2023-03-25T15:01:19;12.73;;;4.07;;
4468;SDS011;2247;42.666;23.292;2023-03-25T15:03:50;8.23;;;5.47;;
4468;SDS011;2247;42.666;23.292;2023-03-25T15:09:10;9.13;;;4.63;;
4468;SDS011;2247;42.666;23.292;2023-03-25T15:14:53;9.93;;;6.37;;
4468;SDS011;2247;42.666;23.292;2023-03-25T15:17:41;11.80;;;7.50;;
4468;SDS011;2247;42.666;23.292;2023-03-25T15:20:11;5.87;;;5.00;;
4468;SDS011;2247;42.666;23.292;2023-03-25T15:26:02;7.47;;;5.07;;
4468;SDS011;2247;42.666;23.292;2023-03-25T15:32:00;8.63;;;4.97;;
4468;SDS011;2247;42.666;23.292;2023-03-25T15:34:43;6.60;;;5.20;;
4468;SDS011;2247;42.666;23.292;2023-03-25T15:37:37;8.97;;;5.87;;
4468;SDS011;2247;42.666;23.292;2023-03-25T15:40:19;7.30;;;5.40;;
4468;SDS011;2247;42.666;23.292;2023-03-25T15:46:10;15.17;;;6.90;;
4468;SDS011;2247;42.666;23.292;2023-03-25T15:52:34;11.10;;;6.87;;
4468;SDS011;2247;42.666;23.292;2023-03-25T15:55:16;8.80;;;6.90;;
4468;SDS011;2247;42.666;23.292;2023-03-25T15:57:47;12.83;;;7.50;;
4468;SDS011;2247;42.666;23.292;2023-03-25T16:00:19;11.07;;;7.40;;
4468;SDS011;2247;42.666;23.292;2023-03-25T16:02:52;12.57;;;7.50;;
4468;SDS011;2247;42.666;23.292;2023-03-25T16:05:27;9.70;;;6.73;;
4468;SDS011;2247;42.666;23.292;2023-03-25T16:07:55;13.43;;;7.27;;
4468;SDS011;2247;42.666;23.292;2023-03-25T16:10:29;13.93;;;7.23;;
4468;SDS011;2247;42.666;23.292;2023-03-25T16:13:01;13.17;;;8.03;;
4468;SDS011;2247;42.666;23.292;2023-03-25T16:15:29;13.63;;;8.03;;
4468;SDS011;2247;42.666;23.292;2023-03-25T16:17:58;8.90;;;7.17;;
4468;SDS011;2247;42.666;23.292;2023-03-25T16:20:32;14.80;;;7.50;;
4468;SDS011;2247;42.666;23.292;2023-03-25T16:23:01;11.43;;;7.80;;
4468;SDS011;2247;42.666;23.292;2023-03-25T16:25:33;13.83;;;7.73;;
4468;SDS011;2247;42.666;23.292;2023-03-25T16:28:02;12.40;;;8.30;;
4468;SDS011;2247;42.666;23.292;2023-03-25T16:30:32;8.83;;;7.50;;
4468;SDS011;2247;42.666;23.292;2023-03-25T16:33:11;12.73;;;8.97;;
4468;SDS011;2247;42.666;23.292;2023-03-25T16:35:43;11.40;;;7.37;;
4468;SDS011;2247;42.666;23.292;2023-03-25T16:38:12;10.70;;;8.10;;
4468;SDS011;2247;42.666;23.292;2023-03-25T16:40:41;13.53;;;8.70;;
4468;SDS011;2247;42.666;23.292;2023-03-25T16:43:12;16.30;;;8.87;;
4468;SDS011;2247;42.666;23.292;2023-03-25T16:45:43;10.80;;;8.13;;
4468;SDS011;2247;42.666;23.292;2023-03-25T16:48:12;12.10;;;8.70;;
4468;SDS011;2247;42.666;23.292;2023-03-25T16:50:43;18.20;;;9.87;;
4468;SDS011;2247;42.666;23.292;2023-03-25T16:53:12;18.77;;;10.63;;
4468;SDS011;2247;42.666;23.292;2023-03-25T16:55:42;16.07;;;9.00;;
4468;SDS011;2247;42.666;23.292;2023-03-25T16:58:14;13.80;;;9.40;;
4468;SDS011;2247;42.666;23.292;2023-03-25T17:00:45;18.50;;;9.73;;
4468;SDS011;2247;42.666;23.292;2023-03-25T17:03:16;24.93;;;9.87;;
4468;SDS011;2247;42.666;23.292;2023-03-25T17:06:03;17.47;;;10.70;;
4468;SDS011;2247;42.666;23.292;2023-03-25T17:08:35;16.73;;;8.27;;
4468;SDS011;2247;42.666;23.292;2023-03-25T17:11:02;13.67;;;8.80;;
4468;SDS011;2247;42.666;23.292;2023-03-25T17:13:34;15.40;;;9.10;;
4468;SDS011;2247;42.666;23.292;2023-03-25T17:16:06;22.83;;;10.20;;
4468;SDS011;2247;42.666;23.292;2023-03-25T17:18:34;20.37;;;10.70;;
4468;SDS011;2247;42.666;23.292;2023-03-25T17:21:10;16.17;;;9.67;;
4468;SDS011;2247;42.666;23.292;2023-03-25T17:23:43;17.07;;;7.90;;
4468;SDS011;2247;42.666;23.292;2023-03-25T17:26:13;13.60;;;6.63;;
4468;SDS011;2247;42.666;23.292;2023-03-25T17:28:55;10.30;;;7.03;;
4468;SDS011;2247;42.666;23.292;2023-03-25T17:31:26;13.03;;;9.43;;
4468;SDS011;2247;42.666;23.292;2023-03-25T17:34:00;25.93;;;13.73;;
4468;SDS011;2247;42.666;23.292;2023-03-25T17:36:32;16.80;;;10.50;;
4468;SDS011;2247;42.666;23.292;2023-03-25T17:39:02;23.73;;;12.70;;
4468;SDS011;2247;42.666;23.292;2023-03-25T17:41:34;21.80;;;13.03;;
4468;SDS011;2247;42.666;23.292;2023-03-25T17:44:03;19.17;;;12.10;;
4468;SDS011;2247;42.666;23.292;2023-03-25T17:46:32;17.70;;;10.60;;
4468;SDS011;2247;42.666;23.292;2023-03-25T17:48:59;17.73;;;10.70;;
4468;SDS011;2247;42.666;23.292;2023-03-25T17:51:27;19.57;;;11.27;;
4468;SDS011;2247;42.666;23.292;2023-03-25T17:53:56;15.00;;;10.37;;
4468;SDS011;2247;42.666;23.292;2023-03-25T17:56:25;13.40;;;9.50;;
4468;SDS011;2247;42.666;23.292;2023-03-25T17:58:55;16.43;;;10.63;;
4468;SDS011;2247;42.666;23.292;2023-03-25T18:01:26;18.17;;;11.00;;
4468;SDS011;2247;42.666;23.292;2023-03-25T18:03:55;23.10;;;13.13;;
4468;SDS011;2247;42.666;23.292;2023-03-25T18:06:22;12.30;;;9.63;;
4468;SDS011;2247;42.666;23.292;2023-03-25T18:08:49;13.63;;;9.13;;
4468;SDS011;2247;42.666;23.292;2023-03-25T18:11:17;16.50;;;10.37;;
4468;SDS011;2247;42.666;23.292;2023-03-25T18:13:44;17.73;;;11.40;;
4468;SDS011;2247;42.666;23.292;2023-03-25T18:16:13;19.43;;;12.27;;
4468;SDS011;2247;42.666;23.292;2023-03-25T18:18:40;20.30;;;12.70;;
4468;SDS011;2247;42.666;23.292;2023-03-25T18:21:08;25.03;;;13.83;;
4468;SDS011;2247;42.666;23.292;2023-03-25T18:23:37;25.50;;;14.87;;
4468;SDS011;2247;42.666;23.292;2023-03-25T18:26:04;38.27;;;20.93;;
4468;SDS011;2247;42.666;23.292;2023-03-25T18:28:38;28.70;;;16.47;;
4468;SDS011;2247;42.666;23.292;2023-03-25T18:31:09;36.20;;;17.43;;
4468;SDS011;2247;42.666;23.292;2023-03-25T18:33:40;45.40;;;17.33;;
4468;SDS011;2247;42.666;23.292;2023-03-25T18:36:07;38.63;;;15.60;;
4468;SDS011;2247;42.666;23.292;2023-03-25T18:38:35;19.37;;;11.87;;
4468;SDS011;2247;42.666;23.292;2023-03-25T18:41:02;25.20;;;13.50;;
4468;SDS011;2247;42.666;23.292;2023-03-25T18:43:30;41.07;;;17.50;;
4468;SDS011;2247;42.666;23.292;2023-03-25T18:45:58;37.67;;;18.87;;
4468;SDS011;2247;42.666;23.292;2023-03-25T18:48:25;43.77;;;19.50;;
4468;SDS011;2247;42.666;23.292;2023-03-25T18:50:54;35.97;;;18.70;;
4468;SDS011;2247;42.666;23.292;2023-03-25T18:53:23;42.70;;;19.60;;
4468;SDS011;2247;42.666;23.292;2023-03-25T18:55:52;40.13;;;20.13;;
4468;SDS011;2247;42.666;23.292;2023-03-25T18:58:21;37.77;;;19.27;;
4468;SDS011;2247;42.666;23.292;2023-03-25T19:00:51;33.57;;;19.10;;
4468;SDS011;2247;42.666;23.292;2023-03-25T19:03:20;38.20;;;19.50;;
4468;SDS011;2247;42.666;23.292;2023-03-25T19:05:54;30.00;;;17.53;;
4468;SDS011;2247;42.666;23.292;2023-03-25T19:08:23;29.97;;;16.47;;
4468;SDS011;2247;42.666;23.292;2023-03-25T19:10:50;42.23;;;17.37;;
4468;SDS011;2247;42.666;23.292;2023-03-25T19:13:17;49.33;;;18.53;;
4468;SDS011;2247;42.666;23.292;2023-03-25T19:15:45;38.20;;;18.83;;
4468;SDS011;2247;42.666;23.292;2023-03-25T19:18:14;32.70;;;17.43;;
4468;SDS011;2247;42.666;23.292;2023-03-25T19:20:44;34.30;;;19.30;;
4468;SDS011;2247;42.666;23.292;2023-03-25T19:23:14;35.80;;;19.10;;
4468;SDS011;2247;42.666;23.292;2023-03-25T19:25:41;36.60;;;18.93;;
4468;SDS011;2247;42.666;23.292;2023-03-25T19:28:10;43.90;;;19.43;;
4468;SDS011;2247;42.666;23.292;2023-03-25T19:30:37;41.03;;;18.63;;
4468;SDS011;2247;42.666;23.292;2023-03-25T19:33:05;40.07;;;19.17;;
4468;SDS011;2247;42.666;23.292;2023-03-25T19:35:32;43.77;;;20.47;;
4468;SDS011;2247;42.666;23.292;2023-03-25T19:38:01;34.53;;;18.83;;
4468;SDS011;2247;42.666;23.292;2023-03-25T19:40:29;42.33;;;20.10;;
4468;SDS011;2247;42.666;23.292;2023-03-25T19:42:58;38.17;;;19.40;;
4468;SDS011;2247;42.666;23.292;2023-03-25T19:45:27;43.37;;;18.23;;
4468;SDS011;2247;42.666;23.292;2023-03-25T19:47:55;39.60;;;19.43;;
4468;SDS011;2247;42.666;23.292;2023-03-25T19:50:24;37.13;;;18.80;;
4468;SDS011;2247;42.666;23.292;2023-03-25T19:52:53;44.83;;;20.37;;
4468;SDS011;2247;42.666;23.292;2023-03-25T19:55:22;39.50;;;20.90;;
4468;SDS011;2247;42.666;23.292;2023-03-25T19:57:49;44.30;;;17.03;;
4468;SDS011;2247;42.666;23.292;2023-03-25T20:00:17;31.47;;;17.07;;
4468;SDS011;2247;42.666;23.292;2023-03-25T20:02:46;37.70;;;17.80;;
4468;SDS011;2247;42.666;23.292;2023-03-25T20:05:15;36.37;;;16.67;;
4468;SDS011;2247;42.666;23.292;2023-03-25T20:07:43;37.50;;;18.93;;
4468;SDS011;2247;42.666;23.292;2023-03-25T20:10:12;34.87;;;16.83;;
4468;SDS011;2247;42.666;23.292;2023-03-25T20:12:43;40.00;;;16.70;;
4468;SDS011;2247;42.666;23.292;2023-03-25T20:15:11;24.90;;;15.97;;
4468;SDS011;2247;42.666;23.292;2023-03-25T20:17:39;30.27;;;16.63;;
4468;SDS011;2247;42.666;23.292;2023-03-25T20:20:07;31.83;;;16.67;;
4468;SDS011;2247;42.666;23.292;2023-03-25T20:22:35;38.00;;;15.90;;
4468;SDS011;2247;42.666;23.292;2023-03-25T20:25:04;29.47;;;14.53;;
4468;SDS011;2247;42.666;23.292;2023-03-25T20:27:33;32.63;;;16.23;;
4468;SDS011;2247;42.666;23.292;2023-03-25T20:30:03;26.13;;;14.27;;
4468;SDS011;2247;42.666;23.292;2023-03-25T20:32:31;23.43;;;13.90;;
4468;SDS011;2247;42.666;23.292;2023-03-25T20:34:58;25.90;;;14.93;;
4468;SDS011;2247;42.666;23.292;2023-03-25T20:37:26;36.20;;;14.93;;
4468;SDS011;2247;42.666;23.292;2023-03-25T20:39:53;24.90;;;16.43;;
4468;SDS011;2247;42.666;23.292;2023-03-25T20:42:20;28.17;;;17.50;;
4468;SDS011;2247;42.666;23.292;2023-03-25T20:44:47;34.43;;;17.30;;
4468;SDS011;2247;42.666;23.292;2023-03-25T20:47:16;25.97;;;15.70;;
4468;SDS011;2247;42.666;23.292;2023-03-25T20:49:43;29.17;;;15.87;;
4468;SDS011;2247;42.666;23.292;2023-03-25T20:52:09;31.50;;;15.40;;
4468;SDS011;2247;42.666;23.292;2023-03-25T20:54:37;28.90;;;16.70;;
4468;SDS011;2247;42.666;23.292;2023-03-25T20:57:04;26.87;;;16.50;;
4468;SDS011;2247;42.666;23.292;2023-03-25T20:59:31;27.70;;;16.97;;
4468;SDS011;2247;42.666;23.292;2023-03-25T21:01:58;28.07;;;16.87;;
4468;SDS011;2247;42.666;23.292;2023-03-25T21:04:29;26.77;;;17.37;;
4468;SDS011;2247;42.666;23.292;2023-03-25T21:06:56;21.43;;;14.77;;
4468;SDS011;2247;42.666;23.292;2023-03-25T21:09:23;25.97;;;15.67;;
4468;SDS011;2247;42.666;23.292;2023-03-25T21:11:50;23.80;;;14.17;;
4468;SDS011;2247;42.666;23.292;2023-03-25T21:14:18;19.37;;;14.30;;
4468;SDS011;2247;42.666;23.292;2023-03-25T21:16:45;18.70;;;12.40;;
4468;SDS011;2247;42.666;23.292;2023-03-25T21:19:12;17.77;;;11.97;;
4468;SDS011;2247;42.666;23.292;2023-03-25T21:21:41;17.80;;;10.90;;
4468;SDS011;2247;42.666;23.292;2023-03-25T21:24:08;15.43;;;10.30;;
4468;SDS011;2247;42.666;23.292;2023-03-25T21:26:35;15.07;;;10.10;;
4468;SDS011;2247;42.666;23.292;2023-03-25T21:29:02;13.50;;;9.20;;
4468;SDS011;2247;42.666;23.292;2023-03-25T21:31:29;14.43;;;9.83;;
4468;SDS011;2247;42.666;23.292;2023-03-25T21:33:56;17.80;;;11.27;;
4468;SDS011;2247;42.666;23.292;2023-03-25T21:36:24;15.40;;;10.00;;
4468;SDS011;2247;42.666;23.292;2023-03-25T21:38:55;18.23;;;9.13;;
4468;SDS011;2247;42.666;23.292;2023-03-25T21:41:23;17.10;;;9.43;;
4468;SDS011;2247;42.666;23.292;2023-03-25T21:43:51;13.93;;;8.50;;
4468;SDS011;2247;42.666;23.292;2023-03-25T21:46:19;14.90;;;9.27;;
4468;SDS011;2247;42.666;23.292;2023-03-25T21:48:48;12.63;;;8.53;;
4468;SDS011;2247;42.666;23.292;2023-03-25T21:51:16;10.57;;;8.27;;
4468;SDS011;2247;42.666;23.292;2023-03-25T21:53:44;9.83;;;7.43;;
4468;SDS011;2247;42.666;23.292;2023-03-25T21:56:16;9.23;;;6.53;;
4468;SDS011;2247;42.666;23.292;2023-03-25T21:58:44;16.53;;;7.80;;
4468;SDS011;2247;42.666;23.292;2023-03-25T22:01:14;10.70;;;7.37;;
4468;SDS011;2247;42.666;23.292;2023-03-25T22:03:44;11.33;;;6.70;;
4468;SDS011;2247;42.666;23.292;2023-03-25T22:06:12;10.63;;;5.90;;
4468;SDS011;2247;42.666;23.292;2023-03-25T22:08:41;14.63;;;6.60;;
4468;SDS011;2247;42.666;23.292;2023-03-25T22:11:12;7.77;;;5.80;;
4468;SDS011;2247;42.666;23.292;2023-03-25T22:13:42;6.03;;;5.43;;
4468;SDS011;2247;42.666;23.292;2023-03-25T22:16:10;8.10;;;6.20;;
4468;SDS011;2247;42.666;23.292;2023-03-25T22:18:39;7.57;;;5.67;;
4468;SDS011;2247;42.666;23.292;2023-03-25T22:21:07;6.97;;;5.33;;
4468;SDS011;2247;42.666;23.292;2023-03-25T22:23:36;10.50;;;6.10;;
4468;SDS011;2247;42.666;23.292;2023-03-25T22:26:04;6.80;;;5.53;;
4468;SDS011;2247;42.666;23.292;2023-03-25T22:28:32;6.80;;;5.40;;
4468;SDS011;2247;42.666;23.292;2023-03-25T22:31:01;8.73;;;5.07;;
4468;SDS011;2247;42.666;23.292;2023-03-25T22:33:34;6.27;;;4.50;;